sensor_id;sensor_type;location;lat;lon;timestamp;P1;durP1;ratioP1;P2;durP2;ratioP2
74632;SDS011;63139;52.018;8.552;2023-01-10T00:02:02;10.25;;;4.80;;
74632;SDS011;63139;52.018;8.552;2023-01-10T00:04:31;10.00;;;4.22;;
74632;SDS011;63139;52.018;8.552;2023-01-10T00:06:59;8.85;;;4.00;;
74632;SDS011;63139;52.018;8.552;2023-01-10T00:09:27;8.73;;;3.65;;
74632;SDS011;63139;52.018;8.552;2023-01-10T00:11:54;10.57;;;4.03;;
74632;SDS011;63139;52.018;8.552;2023-01-10T00:14:40;7.55;;;3.22;;
74632;SDS011;63139;52.018;8.552;2023-01-10T00:17:07;8.68;;;3.85;;
74632;SDS011;63139;52.018;8.552;2023-01-10T00:19:37;7.20;;;3.80;;
74632;SDS011;63139;52.018;8.552;2023-01-10T00:22:04;9.82;;;3.78;;
74632;SDS011;63139;52.018;8.552;2023-01-10T00:24:47;8.13;;;3.30;;
74632;SDS011;63139;52.018;8.552;2023-01-10T00:27:15;10.20;;;3.10;;
74632;SDS011;63139;52.018;8.552;2023-01-10T00:29:46;7.13;;;2.67;;
74632;SDS011;63139;52.018;8.552;2023-01-10T00:32:16;9.10;;;3.20;;
74632;SDS011;63139;52.018;8.552;2023-01-10T00:34:46;6.38;;;2.45;;
74632;SDS011;63139;52.018;8.552;2023-01-10T00:37:13;8.20;;;3.00;;
74632;SDS011;63139;52.018;8.552;2023-01-10T00:39:41;5.25;;;2.20;;
74632;SDS011;63139;52.018;8.552;2023-01-10T00:42:09;5.30;;;2.63;;
74632;SDS011;63139;52.018;8.552;2023-01-10T00:44:55;5.63;;;2.67;;
74632;SDS011;63139;52.018;8.552;2023-01-10T00:47:22;6.63;;;2.40;;
74632;SDS011;63139;52.018;8.552;2023-01-10T00:49:51;6.13;;;2.78;;
74632;SDS011;63139;52.018;8.552;2023-01-10T00:52:19;7.00;;;2.70;;
74632;SDS011;63139;52.018;8.552;2023-01-10T00:54:47;5.03;;;2.80;;
74632;SDS011;63139;52.018;8.552;2023-01-10T00:57:14;10.20;;;2.95;;
74632;SDS011;63139;52.018;8.552;2023-01-10T00:59:42;7.95;;;2.70;;
74632;SDS011;63139;52.018;8.552;2023-01-10T01:02:10;7.10;;;2.78;;
74632;SDS011;63139;52.018;8.552;2023-01-10T01:04:38;10.25;;;3.38;;
74632;SDS011;63139;52.018;8.552;2023-01-10T01:07:07;9.20;;;3.58;;
74632;SDS011;63139;52.018;8.552;2023-01-10T01:09:35;5.82;;;3.00;;
74632;SDS011;63139;52.018;8.552;2023-01-10T01:12:23;10.52;;;3.38;;
74632;SDS011;63139;52.018;8.552;2023-01-10T01:14:51;7.38;;;3.08;;
74632;SDS011;63139;52.018;8.552;2023-01-10T01:17:19;5.38;;;2.90;;
74632;SDS011;63139;52.018;8.552;2023-01-10T01:19:46;6.55;;;3.10;;
74632;SDS011;63139;52.018;8.552;2023-01-10T01:22:15;6.68;;;3.08;;
74632;SDS011;63139;52.018;8.552;2023-01-10T01:24:43;7.53;;;3.35;;
74632;SDS011;63139;52.018;8.552;2023-01-10T01:27:11;8.60;;;3.38;;
74632;SDS011;63139;52.018;8.552;2023-01-10T01:29:38;9.02;;;3.72;;
74632;SDS011;63139;52.018;8.552;2023-01-10T01:32:08;11.95;;;3.75;;
74632;SDS011;63139;52.018;8.552;2023-01-10T01:34:37;10.20;;;4.20;;
74632;SDS011;63139;52.018;8.552;2023-01-10T01:37:05;8.65;;;3.90;;
74632;SDS011;63139;52.018;8.552;2023-01-10T01:39:34;8.18;;;4.05;;
74632;SDS011;63139;52.018;8.552;2023-01-10T01:42:03;8.27;;;3.92;;
74632;SDS011;63139;52.018;8.552;2023-01-10T01:44:31;8.55;;;4.57;;
74632;SDS011;63139;52.018;8.552;2023-01-10T01:47:02;10.75;;;3.80;;
74632;SDS011;63139;52.018;8.552;2023-01-10T01:49:33;9.52;;;4.40;;
74632;SDS011;63139;52.018;8.552;2023-01-10T01:52:07;9.90;;;4.78;;
74632;SDS011;63139;52.018;8.552;2023-01-10T01:54:39;14.38;;;6.30;;
74632;SDS011;63139;52.018;8.552;2023-01-10T01:57:08;16.58;;;6.45;;
74632;SDS011;63139;52.018;8.552;2023-01-10T01:59:40;25.25;;;7.80;;
74632;SDS011;63139;52.018;8.552;2023-01-10T02:02:12;13.90;;;6.50;;
74632;SDS011;63139;52.018;8.552;2023-01-10T02:04:44;14.65;;;6.38;;
74632;SDS011;63139;52.018;8.552;2023-01-10T02:07:17;16.92;;;8.07;;
74632;SDS011;63139;52.018;8.552;2023-01-10T02:09:49;14.30;;;7.13;;
74632;SDS011;63139;52.018;8.552;2023-01-10T02:12:20;17.10;;;7.90;;
74632;SDS011;63139;52.018;8.552;2023-01-10T02:14:49;16.48;;;8.00;;
74632;SDS011;63139;52.018;8.552;2023-01-10T02:17:18;11.75;;;5.70;;
74632;SDS011;63139;52.018;8.552;2023-01-10T02:19:49;14.48;;;6.82;;
74632;SDS011;63139;52.018;8.552;2023-01-10T02:25:39;15.87;;;6.87;;
74632;SDS011;63139;52.018;8.552;2023-01-10T02:32:12;21.52;;;7.65;;
74632;SDS011;63139;52.018;8.552;2023-01-10T02:35:12;26.63;;;7.75;;
74632;SDS011;63139;52.018;8.552;2023-01-10T02:37:52;21.00;;;7.95;;
74632;SDS011;63139;52.018;8.552;2023-01-10T02:40:29;22.65;;;7.68;;
74632;SDS011;63139;52.018;8.552;2023-01-10T02:43:07;20.00;;;6.88;;
74632;SDS011;63139;52.018;8.552;2023-01-10T02:45:40;19.92;;;6.85;;
74632;SDS011;63139;52.018;8.552;2023-01-10T02:48:16;18.92;;;6.47;;
74632;SDS011;63139;52.018;8.552;2023-01-10T02:50:48;14.73;;;6.78;;
74632;SDS011;63139;52.018;8.552;2023-01-10T02:53:22;24.20;;;7.65;;
74632;SDS011;63139;52.018;8.552;2023-01-10T02:55:59;20.63;;;6.88;;
74632;SDS011;63139;52.018;8.552;2023-01-10T02:58:43;24.17;;;7.60;;
74632;SDS011;63139;52.018;8.552;2023-01-10T03:01:36;16.02;;;6.78;;
74632;SDS011;63139;52.018;8.552;2023-01-10T03:04:14;16.15;;;5.30;;
74632;SDS011;63139;52.018;8.552;2023-01-10T03:06:51;27.20;;;6.85;;
74632;SDS011;63139;52.018;8.552;2023-01-10T03:09:25;20.45;;;6.40;;
74632;SDS011;63139;52.018;8.552;2023-01-10T03:12:00;12.20;;;5.38;;
74632;SDS011;63139;52.018;8.552;2023-01-10T03:14:36;17.08;;;5.53;;
74632;SDS011;63139;52.018;8.552;2023-01-10T03:17:06;19.27;;;6.03;;
74632;SDS011;63139;52.018;8.552;2023-01-10T03:19:39;18.00;;;5.25;;
74632;SDS011;63139;52.018;8.552;2023-01-10T03:22:11;19.10;;;5.18;;
74632;SDS011;63139;52.018;8.552;2023-01-10T03:24:41;16.33;;;4.60;;
74632;SDS011;63139;52.018;8.552;2023-01-10T03:27:13;16.80;;;5.05;;
74632;SDS011;63139;52.018;8.552;2023-01-10T03:29:47;15.05;;;5.10;;
74632;SDS011;63139;52.018;8.552;2023-01-10T03:32:20;13.95;;;5.45;;
74632;SDS011;63139;52.018;8.552;2023-01-10T03:34:53;15.35;;;5.25;;
74632;SDS011;63139;52.018;8.552;2023-01-10T03:37:23;14.02;;;5.18;;
74632;SDS011;63139;52.018;8.552;2023-01-10T03:40:03;18.20;;;5.20;;
74632;SDS011;63139;52.018;8.552;2023-01-10T03:42:36;19.10;;;4.75;;
74632;SDS011;63139;52.018;8.552;2023-01-10T03:45:29;17.77;;;4.93;;
74632;SDS011;63139;52.018;8.552;2023-01-10T03:48:03;14.60;;;4.82;;
74632;SDS011;63139;52.018;8.552;2023-01-10T03:50:34;12.65;;;4.82;;
74632;SDS011;63139;52.018;8.552;2023-01-10T03:53:04;13.10;;;5.07;;
74632;SDS011;63139;52.018;8.552;2023-01-10T03:55:32;13.05;;;4.82;;
74632;SDS011;63139;52.018;8.552;2023-01-10T03:58:00;25.38;;;5.85;;
74632;SDS011;63139;52.018;8.552;2023-01-10T04:00:28;17.23;;;5.20;;
74632;SDS011;63139;52.018;8.552;2023-01-10T04:02:57;22.73;;;5.25;;
74632;SDS011;63139;52.018;8.552;2023-01-10T04:05:25;14.63;;;4.93;;
74632;SDS011;63139;52.018;8.552;2023-01-10T04:07:54;15.20;;;5.35;;
74632;SDS011;63139;52.018;8.552;2023-01-10T04:10:21;17.77;;;5.57;;
74632;SDS011;63139;52.018;8.552;2023-01-10T04:12:52;12.68;;;5.20;;
74632;SDS011;63139;52.018;8.552;2023-01-10T04:15:19;19.15;;;5.68;;
74632;SDS011;63139;52.018;8.552;2023-01-10T04:17:47;19.52;;;5.47;;
74632;SDS011;63139;52.018;8.552;2023-01-10T04:20:15;15.45;;;4.68;;
74632;SDS011;63139;52.018;8.552;2023-01-10T04:22:43;15.43;;;4.60;;
74632;SDS011;63139;52.018;8.552;2023-01-10T04:25:12;13.27;;;4.88;;
74632;SDS011;63139;52.018;8.552;2023-01-10T04:27:40;9.20;;;4.57;;
74632;SDS011;63139;52.018;8.552;2023-01-10T04:30:08;17.05;;;5.18;;
74632;SDS011;63139;52.018;8.552;2023-01-10T04:32:36;13.38;;;4.50;;
74632;SDS011;63139;52.018;8.552;2023-01-10T04:35:04;11.57;;;4.47;;
74632;SDS011;63139;52.018;8.552;2023-01-10T04:37:32;13.40;;;4.35;;
74632;SDS011;63139;52.018;8.552;2023-01-10T04:40:00;15.48;;;4.65;;
74632;SDS011;63139;52.018;8.552;2023-01-10T04:42:29;15.77;;;4.45;;
74632;SDS011;63139;52.018;8.552;2023-01-10T04:44:57;16.52;;;4.97;;
74632;SDS011;63139;52.018;8.552;2023-01-10T04:47:25;12.00;;;4.90;;
74632;SDS011;63139;52.018;8.552;2023-01-10T04:49:52;16.60;;;5.95;;
74632;SDS011;63139;52.018;8.552;2023-01-10T04:52:20;16.30;;;5.35;;
74632;SDS011;63139;52.018;8.552;2023-01-10T04:54:50;22.25;;;5.10;;
74632;SDS011;63139;52.018;8.552;2023-01-10T04:57:18;21.60;;;5.90;;
74632;SDS011;63139;52.018;8.552;2023-01-10T04:59:47;23.35;;;6.70;;
74632;SDS011;63139;52.018;8.552;2023-01-10T05:02:14;15.43;;;5.05;;
74632;SDS011;63139;52.018;8.552;2023-01-10T05:04:42;19.88;;;6.72;;
74632;SDS011;63139;52.018;8.552;2023-01-10T05:07:10;17.67;;;5.88;;
74632;SDS011;63139;52.018;8.552;2023-01-10T05:09:38;16.27;;;6.18;;
74632;SDS011;63139;52.018;8.552;2023-01-10T05:12:05;19.48;;;6.20;;
74632;SDS011;63139;52.018;8.552;2023-01-10T05:14:33;14.20;;;4.78;;
74632;SDS011;63139;52.018;8.552;2023-01-10T05:17:02;21.33;;;6.40;;
74632;SDS011;63139;52.018;8.552;2023-01-10T05:19:31;18.08;;;5.57;;
74632;SDS011;63139;52.018;8.552;2023-01-10T05:21:58;14.82;;;5.45;;
74632;SDS011;63139;52.018;8.552;2023-01-10T05:24:26;20.10;;;6.28;;
74632;SDS011;63139;52.018;8.552;2023-01-10T05:26:54;20.67;;;6.40;;
74632;SDS011;63139;52.018;8.552;2023-01-10T05:29:22;18.08;;;5.97;;
74632;SDS011;63139;52.018;8.552;2023-01-10T05:31:50;18.58;;;6.70;;
74632;SDS011;63139;52.018;8.552;2023-01-10T05:34:20;14.27;;;5.22;;
74632;SDS011;63139;52.018;8.552;2023-01-10T05:36:48;14.55;;;6.13;;
74632;SDS011;63139;52.018;8.552;2023-01-10T05:39:15;20.25;;;6.00;;
74632;SDS011;63139;52.018;8.552;2023-01-10T05:41:43;14.27;;;5.63;;
74632;SDS011;63139;52.018;8.552;2023-01-10T05:44:11;12.70;;;5.18;;
74632;SDS011;63139;52.018;8.552;2023-01-10T05:46:40;17.55;;;6.60;;
74632;SDS011;63139;52.018;8.552;2023-01-10T05:49:08;14.25;;;5.07;;
74632;SDS011;63139;52.018;8.552;2023-01-10T05:51:37;12.98;;;5.35;;
74632;SDS011;63139;52.018;8.552;2023-01-10T05:54:04;16.20;;;6.03;;
74632;SDS011;63139;52.018;8.552;2023-01-10T05:56:32;19.85;;;6.70;;
74632;SDS011;63139;52.018;8.552;2023-01-10T05:59:00;18.92;;;6.32;;
74632;SDS011;63139;52.018;8.552;2023-01-10T06:01:47;16.73;;;5.38;;
74632;SDS011;63139;52.018;8.552;2023-01-10T06:04:15;22.92;;;7.15;;
74632;SDS011;63139;52.018;8.552;2023-01-10T06:06:44;20.70;;;6.28;;
74632;SDS011;63139;52.018;8.552;2023-01-10T06:09:12;13.35;;;6.30;;
74632;SDS011;63139;52.018;8.552;2023-01-10T06:11:39;15.25;;;6.30;;
74632;SDS011;63139;52.018;8.552;2023-01-10T06:14:07;12.57;;;5.65;;
74632;SDS011;63139;52.018;8.552;2023-01-10T06:16:35;13.40;;;5.57;;
74632;SDS011;63139;52.018;8.552;2023-01-10T06:19:03;13.73;;;5.68;;
74632;SDS011;63139;52.018;8.552;2023-01-10T06:21:31;19.77;;;6.50;;
74632;SDS011;63139;52.018;8.552;2023-01-10T06:24:00;18.65;;;6.30;;
74632;SDS011;63139;52.018;8.552;2023-01-10T06:26:27;16.48;;;6.43;;
74632;SDS011;63139;52.018;8.552;2023-01-10T06:28:55;24.80;;;7.22;;
74632;SDS011;63139;52.018;8.552;2023-01-10T06:31:24;20.67;;;7.10;;
74632;SDS011;63139;52.018;8.552;2023-01-10T06:33:52;18.80;;;8.10;;
74632;SDS011;63139;52.018;8.552;2023-01-10T06:36:20;13.82;;;6.28;;
74632;SDS011;63139;52.018;8.552;2023-01-10T06:38:48;20.00;;;7.28;;
74632;SDS011;63139;52.018;8.552;2023-01-10T06:41:17;17.98;;;7.82;;
74632;SDS011;63139;52.018;8.552;2023-01-10T06:43:45;15.85;;;5.82;;
74632;SDS011;63139;52.018;8.552;2023-01-10T06:46:14;15.07;;;6.60;;
74632;SDS011;63139;52.018;8.552;2023-01-10T06:48:43;21.27;;;8.07;;
74632;SDS011;63139;52.018;8.552;2023-01-10T06:51:12;19.73;;;6.70;;
74632;SDS011;63139;52.018;8.552;2023-01-10T06:53:45;15.75;;;6.47;;
74632;SDS011;63139;52.018;8.552;2023-01-10T06:56:12;15.25;;;6.85;;
74632;SDS011;63139;52.018;8.552;2023-01-10T06:58:41;19.10;;;7.18;;
74632;SDS011;63139;52.018;8.552;2023-01-10T07:01:12;12.35;;;6.47;;
74632;SDS011;63139;52.018;8.552;2023-01-10T07:03:41;19.00;;;7.70;;
74632;SDS011;63139;52.018;8.552;2023-01-10T07:06:08;16.42;;;6.90;;
74632;SDS011;63139;52.018;8.552;2023-01-10T07:08:37;15.88;;;6.95;;
74632;SDS011;63139;52.018;8.552;2023-01-10T07:11:05;14.55;;;7.18;;
74632;SDS011;63139;52.018;8.552;2023-01-10T07:13:34;13.85;;;7.60;;
74632;SDS011;63139;52.018;8.552;2023-01-10T07:16:04;17.25;;;8.30;;
74632;SDS011;63139;52.018;8.552;2023-01-10T07:18:33;19.45;;;6.95;;
74632;SDS011;63139;52.018;8.552;2023-01-10T07:21:01;19.70;;;8.13;;
74632;SDS011;63139;52.018;8.552;2023-01-10T07:23:29;16.73;;;6.97;;
74632;SDS011;63139;52.018;8.552;2023-01-10T07:25:58;20.88;;;9.57;;
74632;SDS011;63139;52.018;8.552;2023-01-10T07:28:28;17.33;;;7.30;;
74632;SDS011;63139;52.018;8.552;2023-01-10T07:30:57;21.20;;;7.07;;
74632;SDS011;63139;52.018;8.552;2023-01-10T07:33:27;19.60;;;8.23;;
74632;SDS011;63139;52.018;8.552;2023-01-10T07:35:56;25.23;;;9.48;;
74632;SDS011;63139;52.018;8.552;2023-01-10T07:38:24;25.08;;;8.68;;
74632;SDS011;63139;52.018;8.552;2023-01-10T07:40:52;22.27;;;8.40;;
74632;SDS011;63139;52.018;8.552;2023-01-10T07:43:19;20.35;;;8.93;;
74632;SDS011;63139;52.018;8.552;2023-01-10T07:45:47;18.48;;;8.38;;
74632;SDS011;63139;52.018;8.552;2023-01-10T07:48:15;12.32;;;7.70;;
74632;SDS011;63139;52.018;8.552;2023-01-10T07:50:44;23.55;;;8.48;;
74632;SDS011;63139;52.018;8.552;2023-01-10T07:53:12;17.35;;;7.85;;
74632;SDS011;63139;52.018;8.552;2023-01-10T07:55:39;20.50;;;9.38;;
74632;SDS011;63139;52.018;8.552;2023-01-10T07:58:08;16.48;;;7.30;;
74632;SDS011;63139;52.018;8.552;2023-01-10T08:00:36;15.95;;;7.40;;
74632;SDS011;63139;52.018;8.552;2023-01-10T08:03:04;23.38;;;8.38;;
74632;SDS011;63139;52.018;8.552;2023-01-10T08:05:32;22.15;;;7.28;;
74632;SDS011;63139;52.018;8.552;2023-01-10T08:08:04;15.98;;;7.47;;
74632;SDS011;63139;52.018;8.552;2023-01-10T08:10:32;18.38;;;7.18;;
74632;SDS011;63139;52.018;8.552;2023-01-10T08:13:00;13.50;;;6.78;;
74632;SDS011;63139;52.018;8.552;2023-01-10T08:15:43;18.55;;;6.35;;
74632;SDS011;63139;52.018;8.552;2023-01-10T08:18:12;17.60;;;7.07;;
74632;SDS011;63139;52.018;8.552;2023-01-10T08:20:40;20.13;;;6.93;;
74632;SDS011;63139;52.018;8.552;2023-01-10T08:23:09;13.07;;;5.90;;
74632;SDS011;63139;52.018;8.552;2023-01-10T08:25:37;24.73;;;7.57;;
74632;SDS011;63139;52.018;8.552;2023-01-10T08:28:05;18.60;;;6.85;;
74632;SDS011;63139;52.018;8.552;2023-01-10T08:30:33;22.38;;;7.13;;
74632;SDS011;63139;52.018;8.552;2023-01-10T08:33:01;17.48;;;5.72;;
74632;SDS011;63139;52.018;8.552;2023-01-10T08:35:29;20.40;;;6.78;;
74632;SDS011;63139;52.018;8.552;2023-01-10T08:37:57;23.23;;;6.95;;
74632;SDS011;63139;52.018;8.552;2023-01-10T08:40:27;19.67;;;7.20;;
74632;SDS011;63139;52.018;8.552;2023-01-10T08:42:56;22.20;;;6.13;;
74632;SDS011;63139;52.018;8.552;2023-01-10T08:45:24;20.88;;;6.10;;
74632;SDS011;63139;52.018;8.552;2023-01-10T08:47:52;14.45;;;5.68;;
74632;SDS011;63139;52.018;8.552;2023-01-10T08:50:20;19.40;;;6.57;;
74632;SDS011;63139;52.018;8.552;2023-01-10T08:52:48;20.88;;;6.88;;
74632;SDS011;63139;52.018;8.552;2023-01-10T08:55:16;27.98;;;7.30;;
74632;SDS011;63139;52.018;8.552;2023-01-10T08:57:46;19.75;;;6.10;;
74632;SDS011;63139;52.018;8.552;2023-01-10T09:00:14;19.17;;;6.38;;
74632;SDS011;63139;52.018;8.552;2023-01-10T09:02:42;15.77;;;6.18;;
74632;SDS011;63139;52.018;8.552;2023-01-10T09:05:10;25.33;;;7.93;;
74632;SDS011;63139;52.018;8.552;2023-01-10T09:07:52;20.17;;;6.13;;
74632;SDS011;63139;52.018;8.552;2023-01-10T09:10:24;20.05;;;6.57;;
74632;SDS011;63139;52.018;8.552;2023-01-10T09:12:53;20.75;;;6.35;;
74632;SDS011;63139;52.018;8.552;2023-01-10T09:15:21;22.15;;;5.80;;
74632;SDS011;63139;52.018;8.552;2023-01-10T09:17:51;18.73;;;5.80;;
74632;SDS011;63139;52.018;8.552;2023-01-10T09:20:20;14.27;;;5.28;;
74632;SDS011;63139;52.018;8.552;2023-01-10T09:22:47;23.40;;;6.28;;
74632;SDS011;63139;52.018;8.552;2023-01-10T09:25:15;21.45;;;6.00;;
74632;SDS011;63139;52.018;8.552;2023-01-10T09:27:44;21.05;;;5.60;;
74632;SDS011;63139;52.018;8.552;2023-01-10T09:30:14;24.05;;;7.88;;
74632;SDS011;63139;52.018;8.552;2023-01-10T09:32:42;16.08;;;5.90;;
74632;SDS011;63139;52.018;8.552;2023-01-10T09:35:10;22.33;;;6.13;;
74632;SDS011;63139;52.018;8.552;2023-01-10T09:37:37;23.73;;;6.35;;
74632;SDS011;63139;52.018;8.552;2023-01-10T09:40:05;21.65;;;6.28;;
74632;SDS011;63139;52.018;8.552;2023-01-10T09:42:38;30.65;;;7.15;;
74632;SDS011;63139;52.018;8.552;2023-01-10T09:45:19;17.02;;;6.35;;
74632;SDS011;63139;52.018;8.552;2023-01-10T09:47:54;18.90;;;6.05;;
74632;SDS011;63139;52.018;8.552;2023-01-10T09:50:29;26.08;;;6.43;;
74632;SDS011;63139;52.018;8.552;2023-01-10T09:53:04;23.20;;;6.43;;
74632;SDS011;63139;52.018;8.552;2023-01-10T09:55:37;23.25;;;6.15;;
74632;SDS011;63139;52.018;8.552;2023-01-10T09:58:06;21.65;;;5.85;;
74632;SDS011;63139;52.018;8.552;2023-01-10T10:00:40;26.23;;;6.90;;
74632;SDS011;63139;52.018;8.552;2023-01-10T10:03:22;21.75;;;6.50;;
74632;SDS011;63139;52.018;8.552;2023-01-10T10:05:54;27.73;;;7.30;;
74632;SDS011;63139;52.018;8.552;2023-01-10T10:08:36;25.25;;;7.35;;
74632;SDS011;63139;52.018;8.552;2023-01-10T10:11:12;22.08;;;6.70;;
74632;SDS011;63139;52.018;8.552;2023-01-10T10:14:02;21.37;;;7.43;;
74632;SDS011;63139;52.018;8.552;2023-01-10T10:16:43;16.70;;;5.75;;
74632;SDS011;63139;52.018;8.552;2023-01-10T10:19:22;21.83;;;5.63;;
74632;SDS011;63139;52.018;8.552;2023-01-10T10:22:01;15.90;;;5.85;;
74632;SDS011;63139;52.018;8.552;2023-01-10T10:24:38;21.73;;;6.80;;
74632;SDS011;63139;52.018;8.552;2023-01-10T10:27:17;17.08;;;5.60;;
74632;SDS011;63139;52.018;8.552;2023-01-10T10:30:01;24.05;;;6.55;;
74632;SDS011;63139;52.018;8.552;2023-01-10T10:32:43;19.20;;;6.50;;
74632;SDS011;63139;52.018;8.552;2023-01-10T10:35:25;18.10;;;5.93;;
74632;SDS011;63139;52.018;8.552;2023-01-10T10:37:57;23.60;;;6.20;;
74632;SDS011;63139;52.018;8.552;2023-01-10T10:40:30;20.52;;;6.60;;
74632;SDS011;63139;52.018;8.552;2023-01-10T10:43:05;20.80;;;6.22;;
74632;SDS011;63139;52.018;8.552;2023-01-10T10:45:41;17.23;;;6.45;;
74632;SDS011;63139;52.018;8.552;2023-01-10T10:48:15;16.05;;;6.20;;
74632;SDS011;63139;52.018;8.552;2023-01-10T10:50:53;23.27;;;6.15;;
74632;SDS011;63139;52.018;8.552;2023-01-10T10:53:26;24.77;;;7.47;;
74632;SDS011;63139;52.018;8.552;2023-01-10T10:55:54;22.98;;;6.90;;
74632;SDS011;63139;52.018;8.552;2023-01-10T10:58:23;33.72;;;8.05;;
74632;SDS011;63139;52.018;8.552;2023-01-10T11:00:51;18.50;;;6.40;;
74632;SDS011;63139;52.018;8.552;2023-01-10T11:03:25;24.67;;;7.63;;
74632;SDS011;63139;52.018;8.552;2023-01-10T11:05:57;18.25;;;6.38;;
74632;SDS011;63139;52.018;8.552;2023-01-10T11:08:27;18.75;;;6.53;;
74632;SDS011;63139;52.018;8.552;2023-01-10T11:10:57;20.40;;;6.53;;
74632;SDS011;63139;52.018;8.552;2023-01-10T11:13:30;21.63;;;6.07;;
74632;SDS011;63139;52.018;8.552;2023-01-10T11:16:07;15.50;;;5.40;;
74632;SDS011;63139;52.018;8.552;2023-01-10T11:21:48;18.33;;;6.35;;
74632;SDS011;63139;52.018;8.552;2023-01-10T11:24:21;19.67;;;6.53;;
74632;SDS011;63139;52.018;8.552;2023-01-10T11:26:53;20.58;;;5.97;;
74632;SDS011;63139;52.018;8.552;2023-01-10T11:29:23;19.92;;;6.38;;
74632;SDS011;63139;52.018;8.552;2023-01-10T11:31:53;22.15;;;6.43;;
74632;SDS011;63139;52.018;8.552;2023-01-10T11:34:23;23.77;;;6.97;;
74632;SDS011;63139;52.018;8.552;2023-01-10T11:36:58;17.58;;;6.13;;
74632;SDS011;63139;52.018;8.552;2023-01-10T11:39:27;26.85;;;7.82;;
74632;SDS011;63139;52.018;8.552;2023-01-10T11:41:57;22.88;;;6.72;;
74632;SDS011;63139;52.018;8.552;2023-01-10T11:44:51;29.08;;;8.52;;
74632;SDS011;63139;52.018;8.552;2023-01-10T11:47:19;23.90;;;6.70;;
74632;SDS011;63139;52.018;8.552;2023-01-10T11:49:47;15.32;;;6.00;;
74632;SDS011;63139;52.018;8.552;2023-01-10T11:52:18;17.40;;;6.15;;
74632;SDS011;63139;52.018;8.552;2023-01-10T11:54:49;17.75;;;5.93;;
74632;SDS011;63139;52.018;8.552;2023-01-10T11:57:17;22.67;;;5.90;;
74632;SDS011;63139;52.018;8.552;2023-01-10T11:59:49;18.77;;;5.35;;
74632;SDS011;63139;52.018;8.552;2023-01-10T12:02:19;16.55;;;5.38;;
74632;SDS011;63139;52.018;8.552;2023-01-10T12:04:50;23.20;;;6.43;;
74632;SDS011;63139;52.018;8.552;2023-01-10T12:07:22;17.98;;;5.20;;
74632;SDS011;63139;52.018;8.552;2023-01-10T12:09:53;20.13;;;5.43;;
74632;SDS011;63139;52.018;8.552;2023-01-10T12:12:23;18.40;;;5.72;;
74632;SDS011;63139;52.018;8.552;2023-01-10T12:14:53;17.27;;;4.68;;
74632;SDS011;63139;52.018;8.552;2023-01-10T12:17:23;19.02;;;5.43;;
74632;SDS011;63139;52.018;8.552;2023-01-10T12:19:54;15.55;;;4.38;;
74632;SDS011;63139;52.018;8.552;2023-01-10T12:22:28;27.10;;;6.18;;
74632;SDS011;63139;52.018;8.552;2023-01-10T12:24:59;17.00;;;4.95;;
74632;SDS011;63139;52.018;8.552;2023-01-10T12:27:30;17.55;;;5.00;;
74632;SDS011;63139;52.018;8.552;2023-01-10T12:30:01;20.23;;;4.95;;
74632;SDS011;63139;52.018;8.552;2023-01-10T12:32:33;20.88;;;4.63;;
74632;SDS011;63139;52.018;8.552;2023-01-10T12:35:05;16.42;;;4.15;;
74632;SDS011;63139;52.018;8.552;2023-01-10T12:37:41;17.52;;;4.47;;
74632;SDS011;63139;52.018;8.552;2023-01-10T12:40:14;15.25;;;4.65;;
74632;SDS011;63139;52.018;8.552;2023-01-10T12:42:50;18.23;;;5.03;;
74632;SDS011;63139;52.018;8.552;2023-01-10T12:45:39;20.48;;;4.53;;
74632;SDS011;63139;52.018;8.552;2023-01-10T12:48:14;12.63;;;4.50;;
74632;SDS011;63139;52.018;8.552;2023-01-10T12:50:49;19.63;;;4.85;;
74632;SDS011;63139;52.018;8.552;2023-01-10T12:53:27;21.80;;;5.32;;
74632;SDS011;63139;52.018;8.552;2023-01-10T12:55:59;18.23;;;4.40;;
74632;SDS011;63139;52.018;8.552;2023-01-10T12:58:33;23.13;;;4.20;;
74632;SDS011;63139;52.018;8.552;2023-01-10T13:01:05;15.73;;;3.90;;
74632;SDS011;63139;52.018;8.552;2023-01-10T13:03:36;15.77;;;4.00;;
74632;SDS011;63139;52.018;8.552;2023-01-10T13:06:05;12.63;;;3.42;;
74632;SDS011;63139;52.018;8.552;2023-01-10T13:08:35;23.60;;;4.50;;
74632;SDS011;63139;52.018;8.552;2023-01-10T13:11:08;23.60;;;4.72;;
74632;SDS011;63139;52.018;8.552;2023-01-10T13:13:42;16.50;;;4.50;;
74632;SDS011;63139;52.018;8.552;2023-01-10T13:16:21;20.57;;;4.07;;
74632;SDS011;63139;52.018;8.552;2023-01-10T13:18:59;18.13;;;4.60;;
74632;SDS011;63139;52.018;8.552;2023-01-10T13:21:30;14.02;;;4.10;;
74632;SDS011;63139;52.018;8.552;2023-01-10T13:24:01;18.20;;;5.72;;
74632;SDS011;63139;52.018;8.552;2023-01-10T13:26:44;19.20;;;4.15;;
74632;SDS011;63139;52.018;8.552;2023-01-10T13:29:15;14.75;;;3.88;;
74632;SDS011;63139;52.018;8.552;2023-01-10T13:31:45;18.75;;;4.60;;
74632;SDS011;63139;52.018;8.552;2023-01-10T13:34:15;17.08;;;3.90;;
74632;SDS011;63139;52.018;8.552;2023-01-10T13:36:46;18.02;;;4.28;;
74632;SDS011;63139;52.018;8.552;2023-01-10T13:39:23;16.65;;;4.35;;
74632;SDS011;63139;52.018;8.552;2023-01-10T13:42:10;15.52;;;3.95;;
74632;SDS011;63139;52.018;8.552;2023-01-10T13:45:19;19.58;;;3.92;;
74632;SDS011;63139;52.018;8.552;2023-01-10T13:47:58;11.52;;;2.67;;
74632;SDS011;63139;52.018;8.552;2023-01-10T13:50:47;15.02;;;3.45;;
74632;SDS011;63139;52.018;8.552;2023-01-10T13:53:50;17.52;;;3.47;;
74632;SDS011;63139;52.018;8.552;2023-01-10T13:56:34;17.60;;;3.30;;
74632;SDS011;63139;52.018;8.552;2023-01-10T13:59:07;12.35;;;3.03;;
74632;SDS011;63139;52.018;8.552;2023-01-10T14:01:57;20.05;;;4.10;;
74632;SDS011;63139;52.018;8.552;2023-01-10T14:04:46;22.08;;;4.63;;
74632;SDS011;63139;52.018;8.552;2023-01-10T14:07:20;19.00;;;4.38;;
74632;SDS011;63139;52.018;8.552;2023-01-10T14:09:51;15.20;;;3.55;;
74632;SDS011;63139;52.018;8.552;2023-01-10T14:12:27;10.85;;;3.10;;
74632;SDS011;63139;52.018;8.552;2023-01-10T14:15:00;12.05;;;2.95;;
74632;SDS011;63139;52.018;8.552;2023-01-10T14:17:31;12.57;;;2.80;;
74632;SDS011;63139;52.018;8.552;2023-01-10T14:22:56;13.88;;;2.80;;
74632;SDS011;63139;52.018;8.552;2023-01-10T14:25:27;14.98;;;2.67;;
74632;SDS011;63139;52.018;8.552;2023-01-10T14:27:59;14.38;;;3.40;;
74632;SDS011;63139;52.018;8.552;2023-01-10T14:30:28;15.02;;;3.35;;
74632;SDS011;63139;52.018;8.552;2023-01-10T14:32:59;11.05;;;2.72;;
74632;SDS011;63139;52.018;8.552;2023-01-10T14:35:32;12.40;;;2.95;;
74632;SDS011;63139;52.018;8.552;2023-01-10T14:38:04;11.48;;;3.00;;
74632;SDS011;63139;52.018;8.552;2023-01-10T14:40:35;14.88;;;2.95;;
74632;SDS011;63139;52.018;8.552;2023-01-10T14:43:10;18.77;;;3.80;;
74632;SDS011;63139;52.018;8.552;2023-01-10T14:45:43;15.10;;;2.88;;
74632;SDS011;63139;52.018;8.552;2023-01-10T14:48:26;13.50;;;2.33;;
74632;SDS011;63139;52.018;8.552;2023-01-10T14:51:12;17.23;;;4.07;;
74632;SDS011;63139;52.018;8.552;2023-01-10T14:53:43;15.77;;;3.03;;
74632;SDS011;63139;52.018;8.552;2023-01-10T14:56:18;12.90;;;2.42;;
74632;SDS011;63139;52.018;8.552;2023-01-10T15:01:19;12.73;;;2.58;;
74632;SDS011;63139;52.018;8.552;2023-01-10T15:03:50;10.90;;;2.22;;
74632;SDS011;63139;52.018;8.552;2023-01-10T15:06:19;12.50;;;2.40;;
74632;SDS011;63139;52.018;8.552;2023-01-10T15:08:55;15.00;;;2.85;;
74632;SDS011;63139;52.018;8.552;2023-01-10T15:11:25;10.10;;;2.45;;
74632;SDS011;63139;52.018;8.552;2023-01-10T15:13:58;14.70;;;3.10;;
74632;SDS011;63139;52.018;8.552;2023-01-10T15:16:29;12.63;;;2.45;;
74632;SDS011;63139;52.018;8.552;2023-01-10T15:18:58;19.98;;;2.70;;